sensor_id;sensor_type;location;lat;lon;timestamp;P1;durP1;ratioP1;P2;durP2;ratioP2
71288;SDS011;59068;52.502;9.860;2023-02-15T00:01:17;13.13;;;11.67;;
71288;SDS011;59068;52.502;9.860;2023-02-15T00:03:43;13.90;;;11.67;;
71288;SDS011;59068;52.502;9.860;2023-02-15T00:06:10;14.20;;;11.67;;
71288;SDS011;59068;52.502;9.860;2023-02-15T00:08:35;12.73;;;11.27;;
71288;SDS011;59068;52.502;9.860;2023-02-15T00:11:09;12.63;;;11.20;;
71288;SDS011;59068;52.502;9.860;2023-02-15T00:13:34;13.30;;;11.63;;
71288;SDS011;59068;52.502;9.860;2023-02-15T00:16:02;15.37;;;12.87;;
71288;SDS011;59068;52.502;9.860;2023-02-15T00:18:28;14.37;;;11.77;;
71288;SDS011;59068;52.502;9.860;2023-02-15T00:20:55;12.63;;;11.10;;
71288;SDS011;59068;52.502;9.860;2023-02-15T00:23:20;14.20;;;11.70;;
71288;SDS011;59068;52.502;9.860;2023-02-15T00:25:46;14.80;;;11.87;;
71288;SDS011;59068;52.502;9.860;2023-02-15T00:28:13;13.77;;;11.60;;
71288;SDS011;59068;52.502;9.860;2023-02-15T00:30:39;13.73;;;11.67;;
71288;SDS011;59068;52.502;9.860;2023-02-15T00:33:05;13.43;;;11.87;;
71288;SDS011;59068;52.502;9.860;2023-02-15T00:35:30;15.17;;;12.07;;
71288;SDS011;59068;52.502;9.860;2023-02-15T00:37:57;13.73;;;11.37;;
71288;SDS011;59068;52.502;9.860;2023-02-15T00:40:23;13.47;;;11.13;;
71288;SDS011;59068;52.502;9.860;2023-02-15T00:42:48;12.67;;;11.07;;
71288;SDS011;59068;52.502;9.860;2023-02-15T00:45:15;15.77;;;12.57;;
71288;SDS011;59068;52.502;9.860;2023-02-15T00:47:40;14.20;;;12.33;;
71288;SDS011;59068;52.502;9.860;2023-02-15T00:50:07;13.20;;;11.67;;
71288;SDS011;59068;52.502;9.860;2023-02-15T00:52:32;12.90;;;11.40;;
71288;SDS011;59068;52.502;9.860;2023-02-15T00:54:57;13.67;;;12.20;;
71288;SDS011;59068;52.502;9.860;2023-02-15T00:57:23;13.80;;;11.73;;
71288;SDS011;59068;52.502;9.860;2023-02-15T00:59:49;13.00;;;11.50;;
71288;SDS011;59068;52.502;9.860;2023-02-15T01:02:16;13.10;;;11.77;;
71288;SDS011;59068;52.502;9.860;2023-02-15T01:04:42;13.10;;;11.37;;
71288;SDS011;59068;52.502;9.860;2023-02-15T01:07:08;12.77;;;11.37;;
71288;SDS011;59068;52.502;9.860;2023-02-15T01:09:33;12.60;;;11.30;;
71288;SDS011;59068;52.502;9.860;2023-02-15T01:11:58;12.50;;;11.20;;
71288;SDS011;59068;52.502;9.860;2023-02-15T01:14:24;13.07;;;11.73;;
71288;SDS011;59068;52.502;9.860;2023-02-15T01:16:49;12.47;;;11.00;;
71288;SDS011;59068;52.502;9.860;2023-02-15T01:19:15;12.53;;;11.10;;
71288;SDS011;59068;52.502;9.860;2023-02-15T01:21:41;14.23;;;11.57;;
71288;SDS011;59068;52.502;9.860;2023-02-15T01:24:16;12.77;;;11.10;;
71288;SDS011;59068;52.502;9.860;2023-02-15T01:26:41;12.63;;;11.07;;
71288;SDS011;59068;52.502;9.860;2023-02-15T01:31:51;14.17;;;11.47;;
71288;SDS011;59068;52.502;9.860;2023-02-15T01:34:17;15.40;;;11.90;;
71288;SDS011;59068;52.502;9.860;2023-02-15T01:36:43;14.37;;;11.40;;
71288;SDS011;59068;52.502;9.860;2023-02-15T01:39:08;12.77;;;10.90;;
71288;SDS011;59068;52.502;9.860;2023-02-15T01:41:37;13.43;;;10.90;;
71288;SDS011;59068;52.502;9.860;2023-02-15T01:44:02;11.63;;;10.43;;
71288;SDS011;59068;52.502;9.860;2023-02-15T01:48:57;14.40;;;11.87;;
71288;SDS011;59068;52.502;9.860;2023-02-15T01:51:39;12.20;;;10.23;;
71288;SDS011;59068;52.502;9.860;2023-02-15T01:54:15;11.03;;;9.87;;
71288;SDS011;59068;52.502;9.860;2023-02-15T01:56:43;11.43;;;10.23;;
71288;SDS011;59068;52.502;9.860;2023-02-15T01:59:11;11.77;;;10.37;;
71288;SDS011;59068;52.502;9.860;2023-02-15T02:01:40;11.80;;;10.57;;
71288;SDS011;59068;52.502;9.860;2023-02-15T02:04:16;13.03;;;11.43;;
71288;SDS011;59068;52.502;9.860;2023-02-15T02:06:44;12.70;;;10.77;;
71288;SDS011;59068;52.502;9.860;2023-02-15T02:09:12;13.20;;;10.60;;
71288;SDS011;59068;52.502;9.860;2023-02-15T02:11:38;14.20;;;10.60;;
71288;SDS011;59068;52.502;9.860;2023-02-15T02:14:03;11.77;;;10.57;;
71288;SDS011;59068;52.502;9.860;2023-02-15T02:27:49;12.43;;;10.63;;
71288;SDS011;59068;52.502;9.860;2023-02-15T02:30:26;11.73;;;9.77;;
71288;SDS011;59068;52.502;9.860;2023-02-15T02:38:11;11.68;;;10.25;;
71288;SDS011;59068;52.502;9.860;2023-02-15T02:41:00;10.90;;;9.95;;
71288;SDS011;59068;52.502;9.860;2023-02-15T02:43:34;12.17;;;10.40;;
71288;SDS011;59068;52.502;9.860;2023-02-15T02:48:34;10.63;;;9.52;;
71288;SDS011;59068;52.502;9.860;2023-02-15T02:51:01;11.47;;;10.33;;
71288;SDS011;59068;52.502;9.860;2023-02-15T02:53:27;11.43;;;10.23;;
71288;SDS011;59068;52.502;9.860;2023-02-15T02:56:41;13.10;;;10.40;;
71288;SDS011;59068;52.502;9.860;2023-02-15T03:01:33;11.07;;;9.98;;
71288;SDS011;59068;52.502;9.860;2023-02-15T03:07:01;10.35;;;9.35;;
71288;SDS011;59068;52.502;9.860;2023-02-15T03:09:30;10.67;;;9.50;;
71288;SDS011;59068;52.502;9.860;2023-02-15T03:12:00;10.40;;;9.43;;
71288;SDS011;59068;52.502;9.860;2023-02-15T03:14:26;9.80;;;8.80;;
71288;SDS011;59068;52.502;9.860;2023-02-15T03:16:52;10.43;;;9.43;;
71288;SDS011;59068;52.502;9.860;2023-02-15T03:19:24;9.90;;;8.90;;
71288;SDS011;59068;52.502;9.860;2023-02-15T03:21:54;10.73;;;9.03;;
71288;SDS011;59068;52.502;9.860;2023-02-15T03:24:32;12.17;;;10.73;;
71288;SDS011;59068;52.502;9.860;2023-02-15T03:26:59;9.77;;;8.82;;
71288;SDS011;59068;52.502;9.860;2023-02-15T03:29:26;10.60;;;9.50;;
71288;SDS011;59068;52.502;9.860;2023-02-15T03:31:59;10.25;;;9.25;;
71288;SDS011;59068;52.502;9.860;2023-02-15T03:34:27;10.20;;;9.20;;
71288;SDS011;59068;52.502;9.860;2023-02-15T03:37:10;10.00;;;9.00;;
71288;SDS011;59068;52.502;9.860;2023-02-15T03:39:52;10.65;;;9.55;;
71288;SDS011;59068;52.502;9.860;2023-02-15T03:47:12;10.63;;;9.53;;
71288;SDS011;59068;52.502;9.860;2023-02-15T03:50:02;9.73;;;8.75;;
71288;SDS011;59068;52.502;9.860;2023-02-15T03:52:29;9.32;;;8.40;;
71288;SDS011;59068;52.502;9.860;2023-02-15T03:54:55;10.20;;;9.13;;
71288;SDS011;59068;52.502;9.860;2023-02-15T04:00:09;10.27;;;9.18;;
71288;SDS011;59068;52.502;9.860;2023-02-15T04:05:36;9.73;;;8.82;;
71288;SDS011;59068;52.502;9.860;2023-02-15T04:08:03;9.35;;;8.35;;
71288;SDS011;59068;52.502;9.860;2023-02-15T04:10:29;11.35;;;9.20;;
71288;SDS011;59068;52.502;9.860;2023-02-15T04:13:14;9.90;;;8.90;;
71288;SDS011;59068;52.502;9.860;2023-02-15T04:15:40;10.10;;;9.10;;
71288;SDS011;59068;52.502;9.860;2023-02-15T04:18:24;9.82;;;8.90;;
71288;SDS011;59068;52.502;9.860;2023-02-15T04:21:08;10.80;;;9.23;;
71288;SDS011;59068;52.502;9.860;2023-02-15T04:23:53;10.05;;;9.05;;
71288;SDS011;59068;52.502;9.860;2023-02-15T04:26:37;10.65;;;9.55;;
71288;SDS011;59068;52.502;9.860;2023-02-15T04:29:04;11.10;;;9.20;;
71288;SDS011;59068;52.502;9.860;2023-02-15T04:31:30;12.05;;;10.18;;
71288;SDS011;59068;52.502;9.860;2023-02-15T04:33:56;11.23;;;10.05;;
71288;SDS011;59068;52.502;9.860;2023-02-15T04:36:22;11.13;;;9.67;;
71288;SDS011;59068;52.502;9.860;2023-02-15T04:38:47;11.35;;;10.15;;
71288;SDS011;59068;52.502;9.860;2023-02-15T04:41:13;11.53;;;10.33;;
71288;SDS011;59068;52.502;9.860;2023-02-15T04:43:40;10.73;;;9.57;;
71288;SDS011;59068;52.502;9.860;2023-02-15T04:46:06;11.45;;;10.23;;
71288;SDS011;59068;52.502;9.860;2023-02-15T04:48:32;11.17;;;10.00;;
71288;SDS011;59068;52.502;9.860;2023-02-15T04:50:58;11.55;;;10.32;;
71288;SDS011;59068;52.502;9.860;2023-02-15T04:53:25;12.10;;;10.75;;
71288;SDS011;59068;52.502;9.860;2023-02-15T04:55:51;11.50;;;10.30;;
71288;SDS011;59068;52.502;9.860;2023-02-15T04:58:17;11.40;;;10.13;;
71288;SDS011;59068;52.502;9.860;2023-02-15T05:00:42;10.93;;;9.68;;
71288;SDS011;59068;52.502;9.860;2023-02-15T05:03:09;11.17;;;9.70;;
71288;SDS011;59068;52.502;9.860;2023-02-15T05:05:35;10.45;;;9.35;;
71288;SDS011;59068;52.502;9.860;2023-02-15T05:08:01;10.30;;;9.23;;
71288;SDS011;59068;52.502;9.860;2023-02-15T05:10:27;10.93;;;9.83;;
71288;SDS011;59068;52.502;9.860;2023-02-15T05:12:54;11.18;;;9.48;;
71288;SDS011;59068;52.502;9.860;2023-02-15T05:15:20;18.98;;;15.00;;
71288;SDS011;59068;52.502;9.860;2023-02-15T05:17:46;12.23;;;10.52;;
71288;SDS011;59068;52.502;9.860;2023-02-15T05:20:12;10.93;;;9.83;;
71288;SDS011;59068;52.502;9.860;2023-02-15T05:22:39;10.68;;;9.57;;
71288;SDS011;59068;52.502;9.860;2023-02-15T05:25:08;10.75;;;9.18;;
71288;SDS011;59068;52.502;9.860;2023-02-15T05:27:53;10.43;;;9.37;;
71288;SDS011;59068;52.502;9.860;2023-02-15T05:30:36;9.48;;;8.57;;
71288;SDS011;59068;52.502;9.860;2023-02-15T05:33:03;9.50;;;8.40;;
71288;SDS011;59068;52.502;9.860;2023-02-15T05:35:28;10.43;;;9.33;;
71288;SDS011;59068;52.502;9.860;2023-02-15T05:37:55;9.70;;;8.73;;
71288;SDS011;59068;52.502;9.860;2023-02-15T05:40:21;10.70;;;9.50;;
71288;SDS011;59068;52.502;9.860;2023-02-15T05:42:47;12.05;;;9.88;;
71288;SDS011;59068;52.502;9.860;2023-02-15T05:45:13;10.77;;;9.63;;
71288;SDS011;59068;52.502;9.860;2023-02-15T05:47:38;11.00;;;9.95;;
71288;SDS011;59068;52.502;9.860;2023-02-15T05:50:04;10.77;;;9.67;;
71288;SDS011;59068;52.502;9.860;2023-02-15T05:52:31;10.83;;;9.73;;
71288;SDS011;59068;52.502;9.860;2023-02-15T05:54:56;10.35;;;9.25;;
71288;SDS011;59068;52.502;9.860;2023-02-15T05:57:22;10.50;;;9.40;;
71288;SDS011;59068;52.502;9.860;2023-02-15T05:59:47;10.95;;;9.25;;
71288;SDS011;59068;52.502;9.860;2023-02-15T06:02:14;9.87;;;8.93;;
71288;SDS011;59068;52.502;9.860;2023-02-15T06:04:39;9.85;;;8.80;;
71288;SDS011;59068;52.502;9.860;2023-02-15T06:07:05;11.13;;;8.77;;
71288;SDS011;59068;52.502;9.860;2023-02-15T06:09:32;10.48;;;9.20;;
71288;SDS011;59068;52.502;9.860;2023-02-15T06:11:58;10.60;;;9.20;;
71288;SDS011;59068;52.502;9.860;2023-02-15T06:14:24;10.45;;;9.10;;
71288;SDS011;59068;52.502;9.860;2023-02-15T06:16:50;9.35;;;8.35;;
71288;SDS011;59068;52.502;9.860;2023-02-15T06:19:16;10.03;;;9.03;;
71288;SDS011;59068;52.502;9.860;2023-02-15T06:21:42;9.98;;;8.95;;
71288;SDS011;59068;52.502;9.860;2023-02-15T06:24:08;10.47;;;9.37;;
71288;SDS011;59068;52.502;9.860;2023-02-15T06:26:33;9.80;;;8.80;;
71288;SDS011;59068;52.502;9.860;2023-02-15T06:29:00;9.70;;;8.70;;
71288;SDS011;59068;52.502;9.860;2023-02-15T06:31:26;9.57;;;8.45;;
71288;SDS011;59068;52.502;9.860;2023-02-15T06:33:52;9.27;;;8.27;;
71288;SDS011;59068;52.502;9.860;2023-02-15T06:36:27;9.65;;;8.65;;
71288;SDS011;59068;52.502;9.860;2023-02-15T06:38:54;10.23;;;8.30;;
71288;SDS011;59068;52.502;9.860;2023-02-15T06:41:21;10.07;;;8.63;;
71288;SDS011;59068;52.502;9.860;2023-02-15T06:43:47;10.07;;;8.63;;
71288;SDS011;59068;52.502;9.860;2023-02-15T06:46:13;11.00;;;9.23;;
71288;SDS011;59068;52.502;9.860;2023-02-15T06:48:39;9.55;;;8.65;;
71288;SDS011;59068;52.502;9.860;2023-02-15T06:51:04;11.30;;;9.83;;
71288;SDS011;59068;52.502;9.860;2023-02-15T06:53:29;11.23;;;10.03;;
71288;SDS011;59068;52.502;9.860;2023-02-15T06:56:03;12.33;;;11.13;;
71288;SDS011;59068;52.502;9.860;2023-02-15T06:58:32;12.43;;;11.05;;
71288;SDS011;59068;52.502;9.860;2023-02-15T07:00:58;13.80;;;12.40;;
71288;SDS011;59068;52.502;9.860;2023-02-15T07:03:25;14.25;;;12.85;;
71288;SDS011;59068;52.502;9.860;2023-02-15T07:05:56;14.60;;;12.18;;
71288;SDS011;59068;52.502;9.860;2023-02-15T07:08:23;15.68;;;13.95;;
71288;SDS011;59068;52.502;9.860;2023-02-15T07:10:49;13.73;;;12.40;;
71288;SDS011;59068;52.502;9.860;2023-02-15T07:13:16;15.63;;;13.57;;
71288;SDS011;59068;52.502;9.860;2023-02-15T07:15:41;13.45;;;12.13;;
71288;SDS011;59068;52.502;9.860;2023-02-15T07:18:08;13.27;;;11.87;;
71288;SDS011;59068;52.502;9.860;2023-02-15T07:20:35;15.13;;;13.00;;
71288;SDS011;59068;52.502;9.860;2023-02-15T07:23:00;13.52;;;12.13;;
71288;SDS011;59068;52.502;9.860;2023-02-15T07:25:26;14.07;;;12.63;;
71288;SDS011;59068;52.502;9.860;2023-02-15T07:27:56;14.60;;;13.10;;
71288;SDS011;59068;52.502;9.860;2023-02-15T07:30:23;15.48;;;13.85;;
71288;SDS011;59068;52.502;9.860;2023-02-15T07:32:49;14.80;;;13.20;;
71288;SDS011;59068;52.502;9.860;2023-02-15T07:35:34;14.80;;;13.30;;
71288;SDS011;59068;52.502;9.860;2023-02-15T07:38:00;15.27;;;13.38;;
71288;SDS011;59068;52.502;9.860;2023-02-15T07:40:26;14.65;;;12.80;;
71288;SDS011;59068;52.502;9.860;2023-02-15T07:42:51;15.00;;;13.45;;
71288;SDS011;59068;52.502;9.860;2023-02-15T07:45:22;15.70;;;13.65;;
71288;SDS011;59068;52.502;9.860;2023-02-15T07:47:48;14.40;;;12.80;;
71288;SDS011;59068;52.502;9.860;2023-02-15T07:50:14;14.40;;;12.90;;
71288;SDS011;59068;52.502;9.860;2023-02-15T07:52:40;12.95;;;11.50;;
71288;SDS011;59068;52.502;9.860;2023-02-15T07:55:06;12.97;;;11.67;;
71288;SDS011;59068;52.502;9.860;2023-02-15T07:57:33;13.70;;;11.73;;
71288;SDS011;59068;52.502;9.860;2023-02-15T08:00:00;12.67;;;11.37;;
71288;SDS011;59068;52.502;9.860;2023-02-15T08:02:27;14.73;;;12.70;;
71288;SDS011;59068;52.502;9.860;2023-02-15T08:04:53;13.07;;;11.75;;
71288;SDS011;59068;52.502;9.860;2023-02-15T08:07:20;16.17;;;13.20;;
71288;SDS011;59068;52.502;9.860;2023-02-15T08:09:47;15.73;;;12.70;;
71288;SDS011;59068;52.502;9.860;2023-02-15T08:12:12;17.50;;;13.93;;
71288;SDS011;59068;52.502;9.860;2023-02-15T08:14:38;16.50;;;12.87;;
71288;SDS011;59068;52.502;9.860;2023-02-15T08:17:04;14.63;;;13.07;;
71288;SDS011;59068;52.502;9.860;2023-02-15T08:19:31;16.27;;;13.03;;
71288;SDS011;59068;52.502;9.860;2023-02-15T08:24:25;15.73;;;14.00;;
71288;SDS011;59068;52.502;9.860;2023-02-15T08:26:51;16.10;;;12.77;;
71288;SDS011;59068;52.502;9.860;2023-02-15T08:29:18;13.57;;;11.90;;
71288;SDS011;59068;52.502;9.860;2023-02-15T08:31:45;17.40;;;14.18;;
71288;SDS011;59068;52.502;9.860;2023-02-15T08:34:13;16.05;;;13.35;;
71288;SDS011;59068;52.502;9.860;2023-02-15T08:36:38;14.60;;;13.02;;
71288;SDS011;59068;52.502;9.860;2023-02-15T08:39:05;16.40;;;13.23;;
71288;SDS011;59068;52.502;9.860;2023-02-15T08:41:35;15.83;;;13.23;;
71288;SDS011;59068;52.502;9.860;2023-02-15T08:44:03;15.85;;;13.63;;
71288;SDS011;59068;52.502;9.860;2023-02-15T08:46:30;15.80;;;12.73;;
71288;SDS011;59068;52.502;9.860;2023-02-15T08:48:56;15.50;;;12.85;;
71288;SDS011;59068;52.502;9.860;2023-02-15T08:51:23;17.93;;;13.37;;
71288;SDS011;59068;52.502;9.860;2023-02-15T08:53:51;18.42;;;13.05;;
71288;SDS011;59068;52.502;9.860;2023-02-15T08:56:20;21.67;;;14.27;;
71288;SDS011;59068;52.502;9.860;2023-02-15T08:58:46;19.67;;;13.67;;
71288;SDS011;59068;52.502;9.860;2023-02-15T09:01:16;30.77;;;18.47;;
71288;SDS011;59068;52.502;9.860;2023-02-15T09:03:47;35.00;;;22.97;;
71288;SDS011;59068;52.502;9.860;2023-02-15T09:06:19;24.67;;;17.47;;
71288;SDS011;59068;52.502;9.860;2023-02-15T09:08:45;24.17;;;17.40;;
71288;SDS011;59068;52.502;9.860;2023-02-15T09:11:19;22.47;;;14.87;;
71288;SDS011;59068;52.502;9.860;2023-02-15T09:14:00;20.47;;;15.40;;
71288;SDS011;59068;52.502;9.860;2023-02-15T09:16:27;20.33;;;15.20;;
71288;SDS011;59068;52.502;9.860;2023-02-15T09:18:54;21.53;;;14.97;;
71288;SDS011;59068;52.502;9.860;2023-02-15T09:21:21;20.30;;;15.17;;
71288;SDS011;59068;52.502;9.860;2023-02-15T09:23:49;20.57;;;14.90;;
71288;SDS011;59068;52.502;9.860;2023-02-15T09:26:16;22.97;;;15.90;;
71288;SDS011;59068;52.502;9.860;2023-02-15T09:28:42;22.47;;;15.07;;
71288;SDS011;59068;52.502;9.860;2023-02-15T09:31:17;20.83;;;15.63;;
71288;SDS011;59068;52.502;9.860;2023-02-15T09:33:44;22.03;;;15.30;;
71288;SDS011;59068;52.502;9.860;2023-02-15T09:36:25;20.67;;;15.83;;
71288;SDS011;59068;52.502;9.860;2023-02-15T09:52:26;21.60;;;15.43;;
71288;SDS011;59068;52.502;9.860;2023-02-15T10:00:12;21.17;;;15.87;;
71288;SDS011;59068;52.502;9.860;2023-02-15T10:02:52;20.70;;;15.00;;
71288;SDS011;59068;52.502;9.860;2023-02-15T10:05:24;20.83;;;15.10;;
71288;SDS011;59068;52.502;9.860;2023-02-15T10:19:02;19.50;;;14.93;;
71288;SDS011;59068;52.502;9.860;2023-02-15T10:26:48;18.37;;;14.60;;
71288;SDS011;59068;52.502;9.860;2023-02-15T10:32:05;20.63;;;15.17;;
71288;SDS011;59068;52.502;9.860;2023-02-15T10:58:44;16.70;;;13.10;;
71288;SDS011;59068;52.502;9.860;2023-02-15T11:01:24;14.57;;;12.70;;
71288;SDS011;59068;52.502;9.860;2023-02-15T11:06:35;14.10;;;11.77;;
71288;SDS011;59068;52.502;9.860;2023-02-15T11:09:03;14.67;;;12.07;;
71288;SDS011;59068;52.502;9.860;2023-02-15T11:11:32;15.23;;;11.87;;
71288;SDS011;59068;52.502;9.860;2023-02-15T11:14:01;13.53;;;12.07;;
71288;SDS011;59068;52.502;9.860;2023-02-15T11:16:28;14.37;;;11.73;;
71288;SDS011;59068;52.502;9.860;2023-02-15T11:18:59;14.33;;;11.60;;
71288;SDS011;59068;52.502;9.860;2023-02-15T11:21:30;14.37;;;11.27;;
71288;SDS011;59068;52.502;9.860;2023-02-15T11:23:59;13.73;;;11.30;;
71288;SDS011;59068;52.502;9.860;2023-02-15T11:26:29;12.70;;;10.97;;
71288;SDS011;59068;52.502;9.860;2023-02-15T11:29:18;15.97;;;12.03;;
71288;SDS011;59068;52.502;9.860;2023-02-15T11:31:44;15.63;;;12.27;;
71288;SDS011;59068;52.502;9.860;2023-02-15T11:37:11;15.03;;;11.37;;
71288;SDS011;59068;52.502;9.860;2023-02-15T11:39:38;13.53;;;11.37;;
71288;SDS011;59068;52.502;9.860;2023-02-15T11:42:15;14.87;;;11.43;;
71288;SDS011;59068;52.502;9.860;2023-02-15T11:44:43;14.67;;;11.67;;
71288;SDS011;59068;52.502;9.860;2023-02-15T11:47:12;15.23;;;11.50;;
71288;SDS011;59068;52.502;9.860;2023-02-15T11:49:38;14.37;;;11.67;;
71288;SDS011;59068;52.502;9.860;2023-02-15T11:52:07;13.87;;;11.43;;
71288;SDS011;59068;52.502;9.860;2023-02-15T11:54:36;15.60;;;12.47;;
71288;SDS011;59068;52.502;9.860;2023-02-15T11:57:12;15.87;;;12.90;;
71288;SDS011;59068;52.502;9.860;2023-02-15T11:59:40;15.43;;;11.67;;
71288;SDS011;59068;52.502;9.860;2023-02-15T12:02:15;15.57;;;12.23;;
71288;SDS011;59068;52.502;9.860;2023-02-15T12:04:41;15.50;;;12.17;;
71288;SDS011;59068;52.502;9.860;2023-02-15T12:12:39;15.47;;;12.13;;
71288;SDS011;59068;52.502;9.860;2023-02-15T12:15:09;13.90;;;11.37;;
71288;SDS011;59068;52.502;9.860;2023-02-15T12:17:38;14.13;;;11.30;;
71288;SDS011;59068;52.502;9.860;2023-02-15T12:22:51;15.83;;;12.33;;
71288;SDS011;59068;52.502;9.860;2023-02-15T12:25:35;14.00;;;11.47;;
71288;SDS011;59068;52.502;9.860;2023-02-15T12:28:03;14.30;;;11.87;;
71288;SDS011;59068;52.502;9.860;2023-02-15T12:30:34;13.83;;;12.10;;
71288;SDS011;59068;52.502;9.860;2023-02-15T12:35:46;14.17;;;11.27;;
71288;SDS011;59068;52.502;9.860;2023-02-15T12:40:45;13.87;;;11.37;;
71288;SDS011;59068;52.502;9.860;2023-02-15T12:44:01;12.33;;;10.63;;
71288;SDS011;59068;52.502;9.860;2023-02-15T12:49:11;14.87;;;11.13;;
71288;SDS011;59068;52.502;9.860;2023-02-15T12:51:52;14.03;;;11.97;;
71288;SDS011;59068;52.502;9.860;2023-02-15T12:57:12;13.20;;;10.97;;
71288;SDS011;59068;52.502;9.860;2023-02-15T12:59:47;14.87;;;12.87;;
71288;SDS011;59068;52.502;9.860;2023-02-15T13:02:16;17.07;;;12.73;;
71288;SDS011;59068;52.502;9.860;2023-02-15T13:04:47;16.07;;;12.67;;
71288;SDS011;59068;52.502;9.860;2023-02-15T13:07:14;15.80;;;11.53;;
71288;SDS011;59068;52.502;9.860;2023-02-15T13:09:40;13.27;;;11.27;;
71288;SDS011;59068;52.502;9.860;2023-02-15T13:14:44;14.87;;;12.40;;
71288;SDS011;59068;52.502;9.860;2023-02-15T13:17:11;17.10;;;12.50;;
71288;SDS011;59068;52.502;9.860;2023-02-15T13:19:45;15.60;;;12.47;;
71288;SDS011;59068;52.502;9.860;2023-02-15T13:22:17;14.70;;;12.50;;
71288;SDS011;59068;52.502;9.860;2023-02-15T13:24:56;14.60;;;12.07;;
71288;SDS011;59068;52.502;9.860;2023-02-15T13:27:24;15.47;;;12.47;;
71288;SDS011;59068;52.502;9.860;2023-02-15T13:29:57;14.10;;;11.70;;
71288;SDS011;59068;52.502;9.860;2023-02-15T13:32:34;16.20;;;12.20;;
71288;SDS011;59068;52.502;9.860;2023-02-15T13:35:04;14.77;;;12.43;;
71288;SDS011;59068;52.502;9.860;2023-02-15T13:56:13;14.27;;;11.83;;
71288;SDS011;59068;52.502;9.860;2023-02-15T14:20:07;13.67;;;10.33;;
71288;SDS011;59068;52.502;9.860;2023-02-15T14:28:14;15.17;;;11.33;;
71288;SDS011;59068;52.502;9.860;2023-02-15T14:30:42;14.90;;;11.77;;
71288;SDS011;59068;52.502;9.860;2023-02-15T14:35:54;13.60;;;11.63;;
71288;SDS011;59068;52.502;9.860;2023-02-15T14:41:22;13.90;;;11.53;;
71288;SDS011;59068;52.502;9.860;2023-02-15T14:46:39;18.23;;;12.77;;
71288;SDS011;59068;52.502;9.860;2023-02-15T14:54:57;14.90;;;11.63;;
71288;SDS011;59068;52.502;9.860;2023-02-15T15:07:52;13.60;;;11.70;;
71288;SDS011;59068;52.502;9.860;2023-02-15T15:12:50;13.00;;;11.63;;
71288;SDS011;59068;52.502;9.860;2023-02-15T15:25:50;14.97;;;11.70;;
71288;SDS011;59068;52.502;9.860;2023-02-15T15:31:36;15.03;;;12.57;;
71288;SDS011;59068;52.502;9.860;2023-02-15T15:47:54;13.30;;;11.73;;
71288;SDS011;59068;52.502;9.860;2023-02-15T15:50:23;13.60;;;11.87;;
71288;SDS011;59068;52.502;9.860;2023-02-15T15:52:50;15.63;;;12.77;;
71288;SDS011;59068;52.502;9.860;2023-02-15T15:55:21;14.23;;;12.00;;
71288;SDS011;59068;52.502;9.860;2023-02-15T15:57:50;14.83;;;12.60;;
71288;SDS011;59068;52.502;9.860;2023-02-15T16:01:03;14.27;;;12.77;;
71288;SDS011;59068;52.502;9.860;2023-02-15T16:03:05;14.00;;;12.33;;
71288;SDS011;59068;52.502;9.860;2023-02-15T16:05:34;13.63;;;12.23;;
71288;SDS011;59068;52.502;9.860;2023-02-15T16:08:01;13.97;;;12.53;;
71288;SDS011;59068;52.502;9.860;2023-02-15T16:10:27;18.83;;;13.20;;
71288;SDS011;59068;52.502;9.860;2023-02-15T16:12:53;15.00;;;12.40;;
71288;SDS011;59068;52.502;9.860;2023-02-15T16:18:05;19.33;;;14.93;;
71288;SDS011;59068;52.502;9.860;2023-02-15T16:20:31;15.10;;;13.23;;
71288;SDS011;59068;52.502;9.860;2023-02-15T16:28:16;15.17;;;13.23;;
71288;SDS011;59068;52.502;9.860;2023-02-15T16:30:44;14.83;;;13.27;;
71288;SDS011;59068;52.502;9.860;2023-02-15T16:35:55;16.33;;;14.60;;
71288;SDS011;59068;52.502;9.860;2023-02-15T16:41:17;15.27;;;13.50;;
71288;SDS011;59068;52.502;9.860;2023-02-15T16:43:46;16.87;;;13.33;;
71288;SDS011;59068;52.502;9.860;2023-02-15T16:46:24;12.90;;;11.57;;
71288;SDS011;59068;52.502;9.860;2023-02-15T16:48:52;14.57;;;12.33;;
71288;SDS011;59068;52.502;9.860;2023-02-15T16:51:25;14.10;;;12.20;;
71288;SDS011;59068;52.502;9.860;2023-02-15T16:53:52;14.03;;;12.20;;
71288;SDS011;59068;52.502;9.860;2023-02-15T16:56:29;15.50;;;12.17;;
71288;SDS011;59068;52.502;9.860;2023-02-15T16:58:57;12.97;;;11.67;;
71288;SDS011;59068;52.502;9.860;2023-02-15T17:01:25;14.23;;;12.73;;
71288;SDS011;59068;52.502;9.860;2023-02-15T17:03:52;15.33;;;13.73;;
71288;SDS011;59068;52.502;9.860;2023-02-15T17:06:35;15.07;;;13.20;;
71288;SDS011;59068;52.502;9.860;2023-02-15T17:09:05;14.67;;;13.00;;
71288;SDS011;59068;52.502;9.860;2023-02-15T17:11:41;17.67;;;13.13;;
71288;SDS011;59068;52.502;9.860;2023-02-15T17:19:26;14.60;;;12.80;;
71288;SDS011;59068;52.502;9.860;2023-02-15T17:21:54;15.23;;;13.63;;
71288;SDS011;59068;52.502;9.860;2023-02-15T17:24:23;14.90;;;13.30;;
71288;SDS011;59068;52.502;9.860;2023-02-15T17:26:51;13.87;;;12.37;;
71288;SDS011;59068;52.502;9.860;2023-02-15T17:32:01;13.63;;;12.20;;
71288;SDS011;59068;52.502;9.860;2023-02-15T17:37:13;14.97;;;12.83;;
71288;SDS011;59068;52.502;9.860;2023-02-15T17:39:50;16.47;;;12.80;;
71288;SDS011;59068;52.502;9.860;2023-02-15T17:42:17;15.97;;;12.83;;
71288;SDS011;59068;52.502;9.860;2023-02-15T17:44:43;17.17;;;13.60;;
71288;SDS011;59068;52.502;9.860;2023-02-15T17:47:15;16.17;;;13.23;;
71288;SDS011;59068;52.502;9.860;2023-02-15T17:49:43;16.93;;;12.53;;
71288;SDS011;59068;52.502;9.860;2023-02-15T17:52:13;18.33;;;16.10;;
71288;SDS011;59068;52.502;9.860;2023-02-15T17:54:44;18.03;;;14.17;;
71288;SDS011;59068;52.502;9.860;2023-02-15T17:57:29;16.37;;;12.53;;
71288;SDS011;59068;52.502;9.860;2023-02-15T17:59:56;15.07;;;12.80;;
71288;SDS011;59068;52.502;9.860;2023-02-15T18:02:40;14.23;;;11.70;;
71288;SDS011;59068;52.502;9.860;2023-02-15T18:05:26;13.57;;;11.57;;
71288;SDS011;59068;52.502;9.860;2023-02-15T18:08:14;15.13;;;11.97;;
71288;SDS011;59068;52.502;9.860;2023-02-15T18:11:00;13.63;;;11.87;;
71288;SDS011;59068;52.502;9.860;2023-02-15T18:13:45;15.23;;;12.10;;
71288;SDS011;59068;52.502;9.860;2023-02-15T18:16:29;13.30;;;11.40;;
71288;SDS011;59068;52.502;9.860;2023-02-15T18:18:56;14.17;;;12.43;;
71288;SDS011;59068;52.502;9.860;2023-02-15T18:21:23;15.73;;;11.57;;
71288;SDS011;59068;52.502;9.860;2023-02-15T18:23:49;14.63;;;11.63;;
71288;SDS011;59068;52.502;9.860;2023-02-15T18:26:19;12.97;;;11.53;;
71288;SDS011;59068;52.502;9.860;2023-02-15T18:28:44;12.97;;;10.80;;
71288;SDS011;59068;52.502;9.860;2023-02-15T18:31:10;13.73;;;11.37;;
71288;SDS011;59068;52.502;9.860;2023-02-15T18:36:30;11.43;;;10.23;;
71288;SDS011;59068;52.502;9.860;2023-02-15T18:38:58;12.10;;;10.33;;
71288;SDS011;59068;52.502;9.860;2023-02-15T18:41:25;12.73;;;10.00;;
71288;SDS011;59068;52.502;9.860;2023-02-15T18:43:51;13.47;;;10.83;;
71288;SDS011;59068;52.502;9.860;2023-02-15T18:46:19;14.30;;;10.47;;
71288;SDS011;59068;52.502;9.860;2023-02-15T18:48:45;11.00;;;9.53;;
71288;SDS011;59068;52.502;9.860;2023-02-15T18:51:22;14.77;;;10.73;;
71288;SDS011;59068;52.502;9.860;2023-02-15T18:53:50;12.57;;;9.87;;
71288;SDS011;59068;52.502;9.860;2023-02-15T18:56:19;12.20;;;10.30;;
71288;SDS011;59068;52.502;9.860;2023-02-15T18:58:44;13.57;;;10.37;;